Time;durP1;ratioP1;P1;durP2;ratioP2;P2;SDS_P1;SDS_P2;PMS_P1;PMS_P2;Temp;Humidity;BMP_temperature;BMP_pressure;BME280_temperature;BME280_humidity;BME280_pressure;Samples;Min_cycle;Max_cycle;Signal;HPM_P1;HPM_P2
2021/07/13 00:01:40;;;;;;;5.10;2.92;;;;;;;;;;5028755;28;20117;-73
2021/07/13 00:04:06;;;;;;;5.40;2.92;;;;;;;;;;5029390;28;20048;-72
2021/07/13 00:06:31;;;;;;;5.18;3.30;;;;;;;;;;5032876;28;20068;-73
2021/07/13 00:08:56;;;;;;;5.10;3.00;;;;;;;;;;5045795;28;20090;-72
2021/07/13 00:11:22;;;;;;;8.70;2.70;;;;;;;;;;5034668;28;20123;-73
2021/07/13 00:13:48;;;;;;;5.50;2.97;;;;;;;;;;5032560;28;20276;-72
2021/07/13 00:16:13;;;;;;;11.57;2.83;;;;;;;;;;5030631;28;20036;-71
2021/07/13 00:18:39;;;;;;;5.05;2.50;;;;;;;;;;5027339;28;20456;-72
2021/07/13 00:21:06;;;;;;;6.20;3.05;;;;;;;;;;5026146;28;20091;-72
2021/07/13 00:23:32;;;;;;;4.68;2.45;;;;;;;;;;5029398;28;20423;-73
2021/07/13 00:25:57;;;;;;;3.65;2.42;;;;;;;;;;5037435;28;20021;-72
2021/07/13 00:28:22;;;;;;;5.17;3.20;;;;;;;;;;5030599;28;20025;-72
2021/07/13 00:30:47;;;;;;;4.67;2.90;;;;;;;;;;5038748;28;20627;-72
2021/07/13 00:33:14;;;;;;;5.17;2.30;;;;;;;;;;5039560;28;20279;-73
2021/07/13 00:35:39;;;;;;;3.63;2.47;;;;;;;;;;5031601;28;20367;-73
2021/07/13 00:38:04;;;;;;;6.18;3.03;;;;;;;;;;5041018;28;20033;-72
2021/07/13 00:40:30;;;;;;;4.63;3.13;;;;;;;;;;5026649;28;20373;-73
2021/07/13 00:42:55;;;;;;;6.32;2.85;;;;;;;;;;5029880;28;20404;-72
2021/07/13 00:45:21;;;;;;;5.33;3.37;;;;;;;;;;5026976;28;20033;-72
2021/07/13 00:47:48;;;;;;;6.13;3.20;;;;;;;;;;5029460;28;20283;-73
2021/07/13 00:50:14;;;;;;;5.75;3.15;;;;;;;;;;5027509;28;20025;-73
2021/07/13 00:52:39;;;;;;;4.63;2.60;;;;;;;;;;5041676;28;20159;-74
2021/07/13 00:55:04;;;;;;;4.43;3.10;;;;;;;;;;5036279;28;20033;-73
2021/07/13 00:57:30;;;;;;;4.45;2.58;;;;;;;;;;5031127;28;20276;-72
2021/07/13 00:59:55;;;;;;;4.10;2.80;;;;;;;;;;5029457;28;20366;-72
2021/07/13 01:02:20;;;;;;;4.82;3.17;;;;;;;;;;5026757;28;20493;-72
2021/07/13 01:04:47;;;;;;;7.22;3.10;;;;;;;;;;5028538;28;20418;-72
2021/07/13 01:07:31;;;;;;;6.00;3.45;;;;;;;;;;5030046;28;20033;-71
2021/07/13 01:10:06;;;;;;;6.57;3.45;;;;;;;;;;5030115;28;20409;-72
2021/07/13 01:12:34;;;;;;;6.78;3.10;;;;;;;;;;5025361;28;20033;-72
2021/07/13 01:15:01;;;;;;;5.05;2.80;;;;;;;;;;5030971;28;20033;-72
2021/07/13 01:17:34;;;;;;;4.45;2.78;;;;;;;;;;5031242;28;20013;-72
2021/07/13 01:20:17;;;;;;;4.55;2.75;;;;;;;;;;5031271;28;20048;-72
2021/07/13 01:22:49;;;;;;;4.15;2.85;;;;;;;;;;5034481;28;20021;-73
2021/07/13 01:25:23;;;;;;;5.28;2.78;;;;;;;;;;5032564;28;20040;-73
2021/07/13 01:27:48;;;;;;;4.43;2.95;;;;;;;;;;5027631;28;20021;-72
2021/07/13 01:30:16;;;;;;;7.73;3.23;;;;;;;;;;5032837;28;20078;-72
2021/07/13 01:32:44;;;;;;;6.43;2.72;;;;;;;;;;5039194;28;20287;-73
2021/07/13 01:35:12;;;;;;;5.70;2.65;;;;;;;;;;5036768;28;20029;-73
2021/07/13 01:37:38;;;;;;;5.05;2.95;;;;;;;;;;5035827;28;20041;-73
2021/07/13 01:40:06;;;;;;;5.40;2.90;;;;;;;;;;5029853;28;20025;-71
2021/07/13 01:42:31;;;;;;;4.25;2.90;;;;;;;;;;5028651;28;20069;-72
2021/07/13 01:44:57;;;;;;;6.57;3.30;;;;;;;;;;5029036;28;20057;-72
2021/07/13 01:47:23;;;;;;;4.55;2.78;;;;;;;;;;5034109;28;20461;-73
2021/07/13 01:49:49;;;;;;;5.90;2.75;;;;;;;;;;5028905;28;20381;-73
2021/07/13 01:52:15;;;;;;;4.05;2.38;;;;;;;;;;5028769;28;20089;-73
2021/07/13 01:54:41;;;;;;;6.22;3.05;;;;;;;;;;5030809;28;20030;-70
2021/07/13 01:57:07;;;;;;;4.10;2.80;;;;;;;;;;5032434;28;20021;-71
2021/07/13 01:59:32;;;;;;;4.47;2.60;;;;;;;;;;5028907;28;20029;-73
2021/07/13 02:01:59;;;;;;;6.25;2.80;;;;;;;;;;5035810;28;20071;-73
2021/07/13 02:04:29;;;;;;;4.68;2.60;;;;;;;;;;5035053;28;20021;-73
2021/07/13 02:06:54;;;;;;;4.45;2.70;;;;;;;;;;5031517;28;20041;-72
2021/07/13 02:09:20;;;;;;;3.65;2.58;;;;;;;;;;5030805;28;20040;-70
2021/07/13 02:11:45;;;;;;;4.93;2.65;;;;;;;;;;5039395;28;20032;-75
2021/07/13 02:14:11;;;;;;;6.32;2.83;;;;;;;;;;5029306;28;20105;-72
2021/07/13 02:16:36;;;;;;;5.50;3.03;;;;;;;;;;5040962;28;20437;-72
2021/07/13 02:19:02;;;;;;;6.32;3.13;;;;;;;;;;5028682;28;20437;-72
2021/07/13 02:21:28;;;;;;;7.07;3.03;;;;;;;;;;5027976;28;20116;-73
2021/07/13 02:23:53;;;;;;;6.40;3.03;;;;;;;;;;5028755;28;20376;-73
2021/07/13 02:26:20;;;;;;;4.50;2.65;;;;;;;;;;5036679;28;20492;-70
2021/07/13 02:28:47;;;;;;;4.40;3.05;;;;;;;;;;5031445;28;20048;-76
2021/07/13 02:31:19;;;;;;;4.18;2.95;;;;;;;;;;5028515;28;20429;-77
2021/07/13 02:33:51;;;;;;;5.90;3.00;;;;;;;;;;5029288;28;20534;-76
2021/07/13 02:36:19;;;;;;;5.53;3.10;;;;;;;;;;5041924;28;20103;-77
2021/07/13 02:38:45;;;;;;;5.50;3.35;;;;;;;;;;5028658;28;20022;-77
2021/07/13 02:41:10;;;;;;;5.30;2.90;;;;;;;;;;5034792;28;20341;-74
2021/07/13 02:43:36;;;;;;;4.28;2.83;;;;;;;;;;5032810;28;20038;-74
2021/07/13 02:46:02;;;;;;;5.50;3.05;;;;;;;;;;5031580;28;20035;-73
2021/07/13 02:48:27;;;;;;;3.90;3.00;;;;;;;;;;5029747;28;20029;-73
2021/07/13 02:50:55;;;;;;;4.32;2.83;;;;;;;;;;5028870;28;20079;-77
2021/07/13 02:53:20;;;;;;;5.85;2.85;;;;;;;;;;5026537;28;20388;-75
2021/07/13 02:55:46;;;;;;;8.75;3.40;;;;;;;;;;5028841;28;20037;-73
2021/07/13 02:58:11;;;;;;;3.92;3.05;;;;;;;;;;5029554;28;20025;-76
2021/07/13 03:00:37;;;;;;;5.38;3.17;;;;;;;;;;5026970;28;20069;-75
2021/07/13 03:03:02;;;;;;;7.35;3.63;;;;;;;;;;5030333;28;20024;-75
2021/07/13 03:05:29;;;;;;;4.20;2.75;;;;;;;;;;5030124;28;20138;-76
2021/07/13 03:07:54;;;;;;;4.97;3.22;;;;;;;;;;5029105;28;20022;-75
2021/07/13 03:10:20;;;;;;;4.97;3.10;;;;;;;;;;5033451;28;20052;-75
2021/07/13 03:12:46;;;;;;;7.15;3.65;;;;;;;;;;5029997;28;20107;-76
2021/07/13 03:15:11;;;;;;;5.63;3.42;;;;;;;;;;5034417;28;20105;-74
2021/07/13 03:17:36;;;;;;;5.07;3.38;;;;;;;;;;5031154;28;20018;-75
2021/07/13 03:20:02;;;;;;;6.45;3.05;;;;;;;;;;5033927;28;20037;-72
2021/07/13 03:22:30;;;;;;;5.20;2.95;;;;;;;;;;5027863;28;20079;-74
2021/07/13 03:24:57;;;;;;;5.75;3.65;;;;;;;;;;5038041;28;20436;-74
2021/07/13 03:27:23;;;;;;;5.30;3.35;;;;;;;;;;5036448;28;20159;-75
2021/07/13 03:29:52;;;;;;;6.53;3.80;;;;;;;;;;5026722;28;20166;-75
2021/07/13 03:32:17;;;;;;;5.50;3.50;;;;;;;;;;5033522;28;20021;-74
2021/07/13 03:34:44;;;;;;;4.82;3.63;;;;;;;;;;5027750;28;20565;-74
2021/07/13 03:37:09;;;;;;;5.55;3.42;;;;;;;;;;5026920;28;20155;-74
2021/07/13 03:39:35;;;;;;;5.80;3.78;;;;;;;;;;5033818;28;20105;-74
2021/07/13 03:42:00;;;;;;;4.40;3.50;;;;;;;;;;5030620;28;20037;-74
2021/07/13 03:44:26;;;;;;;5.82;3.53;;;;;;;;;;5030147;28;20460;-74
2021/07/13 03:46:51;;;;;;;6.78;3.80;;;;;;;;;;5035064;28;20025;-75
2021/07/13 03:49:16;;;;;;;8.68;3.90;;;;;;;;;;5030843;28;20215;-75
2021/07/13 03:51:45;;;;;;;6.38;4.00;;;;;;;;;;5029124;28;20092;-75
2021/07/13 03:54:12;;;;;;;6.32;3.90;;;;;;;;;;5028290;28;20428;-74
2021/07/13 03:56:37;;;;;;;7.45;3.97;;;;;;;;;;5042010;28;20494;-75
2021/07/13 03:59:03;;;;;;;7.10;4.30;;;;;;;;;;5031760;28;20041;-74
2021/07/13 04:01:28;;;;;;;5.75;3.83;;;;;;;;;;5029200;28;20455;-74
2021/07/13 04:03:53;;;;;;;6.70;4.03;;;;;;;;;;5036270;28;20036;-74
2021/07/13 04:06:18;;;;;;;6.33;3.83;;;;;;;;;;5031712;28;20135;-75
2021/07/13 04:08:43;;;;;;;6.15;4.10;;;;;;;;;;5040638;28;20642;-74
2021/07/13 04:11:09;;;;;;;6.85;4.20;;;;;;;;;;5033925;28;20381;-75
2021/07/13 04:13:34;;;;;;;5.47;3.50;;;;;;;;;;5038180;28;20355;-74
2021/07/13 04:15:59;;;;;;;6.50;4.10;;;;;;;;;;5031668;28;20283;-74
2021/07/13 04:18:24;;;;;;;7.20;4.00;;;;;;;;;;5034923;28;20032;-75
2021/07/13 04:20:50;;;;;;;6.65;4.40;;;;;;;;;;5033368;28;20300;-74
2021/07/13 04:23:15;;;;;;;6.20;3.88;;;;;;;;;;5034349;28;20029;-74
2021/07/13 04:25:40;;;;;;;7.55;3.78;;;;;;;;;;5049629;28;20025;-74
2021/07/13 04:28:05;;;;;;;7.25;4.30;;;;;;;;;;5039069;28;20056;-75
2021/07/13 04:30:30;;;;;;;7.47;3.90;;;;;;;;;;5031718;28;20025;-75
2021/07/13 04:32:56;;;;;;;7.63;3.45;;;;;;;;;;5034599;28;20310;-75
2021/07/13 04:35:21;;;;;;;5.97;3.50;;;;;;;;;;5037144;28;20053;-74
2021/07/13 04:37:46;;;;;;;6.22;3.88;;;;;;;;;;5032869;28;20024;-74
2021/07/13 04:40:12;;;;;;;5.43;3.72;;;;;;;;;;5025291;28;20042;-74
2021/07/13 04:42:37;;;;;;;5.65;3.85;;;;;;;;;;5034641;28;20417;-75
2021/07/13 04:45:03;;;;;;;8.07;3.55;;;;;;;;;;5034711;28;20036;-75
2021/07/13 04:47:28;;;;;;;5.78;3.75;;;;;;;;;;5029936;28;20025;-75
2021/07/13 04:49:53;;;;;;;6.83;3.40;;;;;;;;;;5036356;28;20056;-75
2021/07/13 04:52:18;;;;;;;6.55;3.78;;;;;;;;;;5029482;28;20307;-75
2021/07/13 04:54:45;;;;;;;6.57;3.33;;;;;;;;;;5030342;28;20033;-75
2021/07/13 04:57:10;;;;;;;6.32;2.90;;;;;;;;;;5032964;28;20013;-74
2021/07/13 04:59:36;;;;;;;5.90;3.30;;;;;;;;;;5029827;28;20236;-74
2021/07/13 05:02:02;;;;;;;8.00;3.35;;;;;;;;;;5034979;28;20307;-75
2021/07/13 05:04:27;;;;;;;5.20;3.10;;;;;;;;;;5031997;28;20020;-75
2021/07/13 05:06:52;;;;;;;4.47;3.07;;;;;;;;;;5030143;28;20040;-68
2021/07/13 05:09:17;;;;;;;6.83;3.27;;;;;;;;;;5032437;28;20928;-68
2021/07/13 05:11:43;;;;;;;4.43;3.03;;;;;;;;;;5035519;28;20269;-69
2021/07/13 05:14:08;;;;;;;6.90;3.50;;;;;;;;;;5033818;28;20075;-68
2021/07/13 05:16:33;;;;;;;6.63;3.47;;;;;;;;;;5030950;28;20053;-66
2021/07/13 05:19:00;;;;;;;6.88;3.40;;;;;;;;;;5030235;28;20500;-66
2021/07/13 05:21:25;;;;;;;6.47;3.13;;;;;;;;;;5028616;28;20099;-66
2021/07/13 05:23:50;;;;;;;6.00;3.42;;;;;;;;;;5027479;28;20432;-66
2021/07/13 05:26:15;;;;;;;5.23;3.43;;;;;;;;;;5031667;28;20033;-65
2021/07/13 05:28:41;;;;;;;4.45;3.20;;;;;;;;;;5037119;28;20367;-66
2021/07/13 05:31:06;;;;;;;7.25;3.30;;;;;;;;;;5030795;28;20683;-66
2021/07/13 05:33:31;;;;;;;8.05;4.00;;;;;;;;;;5033524;28;20076;-65
2021/07/13 05:35:56;;;;;;;5.97;3.07;;;;;;;;;;5042291;28;20026;-65
2021/07/13 05:38:21;;;;;;;8.88;3.30;;;;;;;;;;5028283;28;20276;-65
2021/07/13 05:40:47;;;;;;;13.07;3.35;;;;;;;;;;5026898;28;20041;-66
2021/07/13 05:43:15;;;;;;;6.57;3.50;;;;;;;;;;5029159;28;20044;-65
2021/07/13 05:45:41;;;;;;;6.88;3.45;;;;;;;;;;5046710;28;20380;-64
2021/07/13 05:48:06;;;;;;;6.85;3.10;;;;;;;;;;5032659;28;20107;-64
2021/07/13 05:50:31;;;;;;;6.03;3.15;;;;;;;;;;5037721;28;20025;-65
2021/07/13 05:53:01;;;;;;;7.72;3.55;;;;;;;;;;5027010;28;20036;-65
2021/07/13 05:55:26;;;;;;;8.65;3.97;;;;;;;;;;5028548;28;20029;-64
2021/07/13 05:57:51;;;;;;;6.30;3.65;;;;;;;;;;5033044;28;20395;-64
2021/07/13 06:00:17;;;;;;;4.68;3.42;;;;;;;;;;5034906;28;20045;-65
2021/07/13 06:02:42;;;;;;;6.57;4.13;;;;;;;;;;5031933;28;20037;-63
2021/07/13 06:05:07;;;;;;;8.65;4.20;;;;;;;;;;5038246;28;20017;-63
2021/07/13 06:07:40;;;;;;;6.90;3.45;;;;;;;;;;5042479;28;20022;-64
2021/07/13 06:10:05;;;;;;;7.75;3.90;;;;;;;;;;5039010;28;20559;-65
2021/07/13 06:12:30;;;;;;;6.82;3.75;;;;;;;;;;5036067;28;20064;-64
2021/07/13 06:14:55;;;;;;;6.97;3.90;;;;;;;;;;5032467;28;20025;-63
2021/07/13 06:17:20;;;;;;;8.47;3.73;;;;;;;;;;5043492;28;20266;-64
2021/07/13 06:19:46;;;;;;;7.73;4.37;;;;;;;;;;5030040;28;20367;-65
2021/07/13 06:22:11;;;;;;;6.30;4.03;;;;;;;;;;5032032;28;20291;-65
2021/07/13 06:24:36;;;;;;;5.38;4.00;;;;;;;;;;5024398;28;20026;-64
2021/07/13 06:27:01;;;;;;;6.35;3.70;;;;;;;;;;5036805;28;20060;-65
2021/07/13 06:29:26;;;;;;;4.65;3.50;;;;;;;;;;5028625;28;20025;-64
2021/07/13 06:31:52;;;;;;;6.60;3.90;;;;;;;;;;5025431;28;20045;-64
2021/07/13 06:34:17;;;;;;;7.25;4.07;;;;;;;;;;5029654;28;20263;-64
2021/07/13 06:36:43;;;;;;;9.45;4.35;;;;;;;;;;5028544;28;20029;-64
2021/07/13 06:39:08;;;;;;;7.72;3.97;;;;;;;;;;5029245;28;20017;-65
2021/07/13 06:41:33;;;;;;;6.43;3.70;;;;;;;;;;5039560;28;20571;-65
2021/07/13 06:43:58;;;;;;;5.10;3.90;;;;;;;;;;5030813;28;20095;-65
2021/07/13 06:46:23;;;;;;;8.30;4.10;;;;;;;;;;5035122;28;20288;-65
2021/07/13 06:48:49;;;;;;;5.77;4.17;;;;;;;;;;5030052;28;20009;-67
2021/07/13 06:51:14;;;;;;;7.13;4.00;;;;;;;;;;5026364;28;20290;-65
2021/07/13 06:53:39;;;;;;;10.00;4.65;;;;;;;;;;5029244;28;20017;-65
2021/07/13 06:56:04;;;;;;;6.35;3.60;;;;;;;;;;5039539;28;20515;-65
2021/07/13 06:58:30;;;;;;;8.52;4.43;;;;;;;;;;5039863;28;20110;-66
2021/07/13 07:00:55;;;;;;;7.83;4.07;;;;;;;;;;5031299;28;20137;-65
2021/07/13 07:03:20;;;;;;;5.47;3.80;;;;;;;;;;5033355;28;20284;-65
2021/07/13 07:05:45;;;;;;;7.63;4.33;;;;;;;;;;5048556;28;20263;-66
2021/07/13 07:08:10;;;;;;;6.57;4.45;;;;;;;;;;5026830;28;20351;-65
2021/07/13 07:10:35;;;;;;;7.40;4.38;;;;;;;;;;5028311;28;20512;-65
2021/07/13 07:13:01;;;;;;;6.90;4.85;;;;;;;;;;5029249;28;20111;-65
2021/07/13 07:15:28;;;;;;;7.63;4.60;;;;;;;;;;5035568;28;20021;-65
2021/07/13 07:17:54;;;;;;;11.88;4.70;;;;;;;;;;5030420;28;20035;-65
2021/07/13 07:20:21;;;;;;;8.48;4.10;;;;;;;;;;5037532;28;20040;-65
2021/07/13 07:22:46;;;;;;;7.07;4.63;;;;;;;;;;5032713;28;20032;-65
2021/07/13 07:25:12;;;;;;;5.05;3.85;;;;;;;;;;5048168;28;20353;-66
2021/07/13 07:27:37;;;;;;;9.68;3.90;;;;;;;;;;5031930;28;20018;-65
2021/07/13 07:30:06;;;;;;;8.52;4.57;;;;;;;;;;5031834;28;20017;-66
2021/07/13 07:32:32;;;;;;;4.95;4.13;;;;;;;;;;5041350;28;20504;-65
2021/07/13 07:34:57;;;;;;;7.95;5.32;;;;;;;;;;5028938;28;20052;-65
2021/07/13 07:37:22;;;;;;;6.25;4.90;;;;;;;;;;5028658;28;20063;-65
2021/07/13 07:39:48;;;;;;;6.07;4.55;;;;;;;;;;5043930;28;20021;-64
2021/07/13 07:42:13;;;;;;;5.93;4.38;;;;;;;;;;5033417;28;20057;-66
2021/07/13 07:44:38;;;;;;;5.80;4.20;;;;;;;;;;5042817;28;20025;-65
2021/07/13 07:47:03;;;;;;;7.00;3.73;;;;;;;;;;5048208;28;20029;-65
2021/07/13 07:49:28;;;;;;;8.32;5.68;;;;;;;;;;5034560;28;20336;-65
2021/07/13 07:51:53;;;;;;;6.13;4.53;;;;;;;;;;5047603;28;20040;-64
2021/07/13 07:54:19;;;;;;;6.10;4.90;;;;;;;;;;5030890;28;20734;-65
2021/07/13 07:56:44;;;;;;;8.40;4.60;;;;;;;;;;5035494;28;20359;-65
2021/07/13 07:59:09;;;;;;;6.43;5.47;;;;;;;;;;5028935;28;20644;-65
2021/07/13 08:01:34;;;;;;;7.37;5.23;;;;;;;;;;5028599;28;20295;-65
2021/07/13 08:04:00;;;;;;;6.13;4.75;;;;;;;;;;5032203;28;20287;-65
2021/07/13 08:06:25;;;;;;;7.90;5.00;;;;;;;;;;5041634;28;20026;-66
2021/07/13 08:08:50;;;;;;;9.90;4.70;;;;;;;;;;5028940;28;20033;-65
2021/07/13 08:11:16;;;;;;;6.73;5.17;;;;;;;;;;5041684;28;20752;-66
2021/07/13 08:13:41;;;;;;;6.60;4.80;;;;;;;;;;5028894;28;20343;-66
2021/07/13 08:16:07;;;;;;;7.13;5.53;;;;;;;;;;5027280;28;20503;-66
2021/07/13 08:18:32;;;;;;;6.47;5.07;;;;;;;;;;5041589;28;20026;-65
2021/07/13 08:20:59;;;;;;;5.87;5.27;;;;;;;;;;5039001;28;20302;-65
2021/07/13 08:23:24;;;;;;;7.63;6.47;;;;;;;;;;5028588;28;20264;-65
2021/07/13 08:25:49;;;;;;;9.55;6.93;;;;;;;;;;5030539;28;20029;-65
2021/07/13 08:28:14;;;;;;;7.03;6.00;;;;;;;;;;5051696;28;20020;-64
2021/07/13 08:30:40;;;;;;;8.07;6.50;;;;;;;;;;5051449;28;20016;-66
2021/07/13 08:33:05;;;;;;;9.57;7.00;;;;;;;;;;5051118;28;20087;-65
2021/07/13 08:35:30;;;;;;;11.02;7.18;;;;;;;;;;5051228;28;20025;-65
2021/07/13 08:37:55;;;;;;;7.93;6.77;;;;;;;;;;5046567;28;20104;-65
2021/07/13 08:40:20;;;;;;;7.00;5.38;;;;;;;;;;5044741;28;20646;-65
2021/07/13 08:42:46;;;;;;;7.10;6.32;;;;;;;;;;5050517;28;20052;-64
2021/07/13 08:45:15;;;;;;;8.32;6.07;;;;;;;;;;5051154;28;20033;-65
2021/07/13 08:47:41;;;;;;;9.52;8.48;;;;;;;;;;5046024;28;20112;-64
2021/07/13 08:50:07;;;;;;;8.63;7.65;;;;;;;;;;5044669;28;20354;-65
2021/07/13 08:52:33;;;;;;;11.20;9.13;;;;;;;;;;5044452;28;20095;-65
2021/07/13 08:54:58;;;;;;;12.23;8.88;;;;;;;;;;5046816;28;20018;-65
2021/07/13 08:57:23;;;;;;;12.68;8.77;;;;;;;;;;5048171;28;20025;-65
2021/07/13 08:59:48;;;;;;;9.73;8.43;;;;;;;;;;5048020;28;20068;-64
2021/07/13 09:02:13;;;;;;;12.33;7.77;;;;;;;;;;5034369;28;20312;-65
2021/07/13 09:04:39;;;;;;;9.02;8.07;;;;;;;;;;5040567;28;20287;-65
2021/07/13 09:07:09;;;;;;;8.45;7.30;;;;;;;;;;5050829;28;20436;-66
2021/07/13 09:09:35;;;;;;;10.02;7.63;;;;;;;;;;5042473;28;20029;-66
2021/07/13 09:12:06;;;;;;;7.90;6.60;;;;;;;;;;5040331;28;20079;-65
2021/07/13 09:14:44;;;;;;;7.90;6.85;;;;;;;;;;5050728;28;20032;-65
2021/07/13 09:17:10;;;;;;;9.90;8.40;;;;;;;;;;5046116;28;20021;-65
2021/07/13 09:19:35;;;;;;;9.90;7.53;;;;;;;;;;5036035;28;20506;-64
2021/07/13 09:22:00;;;;;;;8.67;7.53;;;;;;;;;;5039215;28;20319;-65
2021/07/13 09:24:27;;;;;;;8.60;7.60;;;;;;;;;;5031760;28;20664;-65
2021/07/13 09:26:53;;;;;;;8.00;6.50;;;;;;;;;;5046957;28;20295;-64
2021/07/13 09:29:29;;;;;;;9.30;6.88;;;;;;;;;;5047932;28;20028;-65
2021/07/13 09:31:55;;;;;;;9.65;7.43;;;;;;;;;;5047833;28;20027;-65
2021/07/13 09:34:20;;;;;;;10.05;7.28;;;;;;;;;;5046767;28;20021;-65
2021/07/13 09:36:52;;;;;;;10.93;7.88;;;;;;;;;;5030019;28;20025;-65
2021/07/13 09:39:21;;;;;;;10.07;7.68;;;;;;;;;;5047843;28;20032;-65
2021/07/13 09:41:50;;;;;;;11.40;9.50;;;;;;;;;;5036643;28;20492;-65
2021/07/13 09:44:20;;;;;;;13.95;8.35;;;;;;;;;;5032555;28;20033;-66
2021/07/13 09:46:45;;;;;;;11.45;8.88;;;;;;;;;;5030374;28;20571;-65
2021/07/13 09:49:27;;;;;;;10.30;8.95;;;;;;;;;;5040931;28;20111;-66
2021/07/13 09:51:55;;;;;;;10.20;7.90;;;;;;;;;;5042434;28;20162;-64
2021/07/13 09:54:40;;;;;;;10.52;8.52;;;;;;;;;;5031058;28;20479;-65
2021/07/13 09:57:06;;;;;;;13.73;8.70;;;;;;;;;;5035648;28;20044;-65
2021/07/13 09:59:31;;;;;;;7.60;4.40;;;;;;;;;;5049296;28;20025;-66
2021/07/13 10:01:56;;;;;;;4.03;3.10;;;;;;;;;;5041855;28;20049;-65
2021/07/13 10:04:22;;;;;;;3.63;2.17;;;;;;;;;;5030237;28;20380;-65
2021/07/13 10:06:48;;;;;;;3.50;1.85;;;;;;;;;;5049575;28;20384;-65
2021/07/13 10:09:14;;;;;;;3.22;1.77;;;;;;;;;;5036011;28;20104;-66
2021/07/13 10:11:40;;;;;;;2.65;1.23;;;;;;;;;;5036253;28;20112;-65
2021/07/13 10:14:11;;;;;;;3.55;0.98;;;;;;;;;;5042934;28;20043;-65
2021/07/13 10:16:36;;;;;;;1.50;0.80;;;;;;;;;;5049070;28;20052;-65
2021/07/13 10:19:03;;;;;;;0.85;0.70;;;;;;;;;;5030481;28;20013;-66
2021/07/13 10:21:29;;;;;;;2.75;0.73;;;;;;;;;;5042946;28;20040;-65
2021/07/13 10:23:55;;;;;;;0.60;0.52;;;;;;;;;;5043414;28;20025;-65
2021/07/13 10:26:46;;;;;;;1.88;0.70;;;;;;;;;;5036350;28;20461;-65
2021/07/13 10:29:30;;;;;;;1.55;0.77;;;;;;;;;;5036858;28;20029;-65
2021/07/13 10:31:55;;;;;;;1.58;0.73;;;;;;;;;;5048939;28;20545;-66
2021/07/13 10:34:39;;;;;;;0.60;0.50;;;;;;;;;;5039826;28;20033;-65
2021/07/13 10:37:24;;;;;;;2.47;0.55;;;;;;;;;;5036421;28;20035;-66
2021/07/13 10:39:49;;;;;;;0.40;0.40;;;;;;;;;;5043718;28;20013;-65
2021/07/13 10:42:42;;;;;;;1.40;0.60;;;;;;;;;;5048406;28;20099;-65
2021/07/13 10:45:22;;;;;;;1.92;0.57;;;;;;;;;;5029427;28;20028;-65
2021/07/13 10:47:57;;;;;;;0.43;0.43;;;;;;;;;;5030814;28;20024;-66
2021/07/13 10:50:22;;;;;;;2.40;0.63;;;;;;;;;;5026289;28;20425;-65
2021/07/13 10:52:53;;;;;;;0.35;0.30;;;;;;;;;;5032428;28;20071;-66
2021/07/13 10:55:30;;;;;;;1.17;0.50;;;;;;;;;;5029573;28;20082;-65
2021/07/13 10:58:14;;;;;;;0.57;0.40;;;;;;;;;;5039939;28;20106;-65
2021/07/13 11:00:56;;;;;;;0.40;0.40;;;;;;;;;;5027968;28;20044;-65
2021/07/13 11:03:31;;;;;;;2.13;0.40;;;;;;;;;;5031627;28;20029;-64
2021/07/13 11:05:57;;;;;;;0.30;0.30;;;;;;;;;;5036138;28;20568;-64
2021/07/13 11:08:49;;;;;;;0.45;0.40;;;;;;;;;;5035846;28;20108;-65
2021/07/13 11:11:14;;;;;;;1.95;0.52;;;;;;;;;;5040483;28;20059;-65
2021/07/13 11:13:40;;;;;;;5.57;0.50;;;;;;;;;;5032468;28;20025;-65
2021/07/13 11:16:05;;;;;;;2.60;0.45;;;;;;;;;;5036760;28;20373;-65
2021/07/13 11:18:31;;;;;;;0.60;0.40;;;;;;;;;;5029385;28;20036;-65
2021/07/13 11:21:15;;;;;;;0.32;0.30;;;;;;;;;;5040701;28;20090;-65
2021/07/13 11:23:41;;;;;;;1.85;0.35;;;;;;;;;;5038722;28;20555;-65
2021/07/13 11:26:07;;;;;;;0.45;0.30;;;;;;;;;;5038576;28;20013;-65
2021/07/13 11:28:32;;;;;;;0.73;0.40;;;;;;;;;;5028247;28;20021;-66
2021/07/13 11:30:58;;;;;;;0.80;0.38;;;;;;;;;;5035222;28;20025;-66
2021/07/13 11:33:29;;;;;;;1.40;0.38;;;;;;;;;;5040220;28;20039;-64
2021/07/13 11:35:56;;;;;;;0.50;0.30;;;;;;;;;;5028088;28;20564;-66
2021/07/13 11:38:25;;;;;;;1.17;0.30;;;;;;;;;;5038126;28;20098;-65
2021/07/13 11:41:12;;;;;;;0.90;0.50;;;;;;;;;;5037541;28;20033;-65
2021/07/13 11:43:37;;;;;;;1.23;0.50;;;;;;;;;;5033018;28;20045;-66
2021/07/13 11:46:29;;;;;;;1.05;0.45;;;;;;;;;;5039208;28;20059;-65
2021/07/13 11:48:58;;;;;;;1.90;0.40;;;;;;;;;;5038922;28;20076;-65
2021/07/13 11:51:31;;;;;;;0.52;0.30;;;;;;;;;;5040595;28;20125;-66
2021/07/13 11:53:57;;;;;;;1.75;0.40;;;;;;;;;;5022877;28;20055;-65
2021/07/13 11:56:25;;;;;;;2.20;0.32;;;;;;;;;;5036337;28;20439;-66
2021/07/13 11:58:50;;;;;;;0.32;0.28;;;;;;;;;;5035907;28;20029;-65
2021/07/13 12:01:17;;;;;;;1.55;0.38;;;;;;;;;;5039353;28;20384;-66
2021/07/13 12:03:42;;;;;;;0.60;0.30;;;;;;;;;;5038168;28;20412;-65
2021/07/13 12:06:11;;;;;;;1.92;0.30;;;;;;;;;;5048652;28;20111;-65
2021/07/13 12:08:37;;;;;;;0.45;0.25;;;;;;;;;;5033443;28;20017;-65
2021/07/13 12:11:02;;;;;;;0.45;0.22;;;;;;;;;;5038599;28;20044;-65
2021/07/13 12:13:27;;;;;;;0.82;0.20;;;;;;;;;;5037403;28;20057;-65
2021/07/13 12:15:53;;;;;;;2.08;0.30;;;;;;;;;;5048363;28;20119;-65
2021/07/13 12:18:18;;;;;;;2.28;0.65;;;;;;;;;;5044714;28;20083;-65
2021/07/13 12:20:44;;;;;;;0.70;0.40;;;;;;;;;;5032967;28;20034;-65
2021/07/13 12:23:09;;;;;;;0.22;0.20;;;;;;;;;;5032525;28;20437;-65
2021/07/13 12:25:34;;;;;;;0.20;0.20;;;;;;;;;;5040211;28;20036;-65
2021/07/13 12:28:12;;;;;;;0.47;0.20;;;;;;;;;;5037599;28;20047;-65
2021/07/13 12:30:37;;;;;;;0.32;0.30;;;;;;;;;;5038460;28;20472;-65
2021/07/13 12:33:03;;;;;;;0.68;0.30;;;;;;;;;;5034362;28;20116;-65
2021/07/13 12:35:28;;;;;;;1.67;0.30;;;;;;;;;;5037307;28;20040;-65
2021/07/13 12:37:54;;;;;;;0.30;0.20;;;;;;;;;;5036636;28;20068;-65
2021/07/13 12:40:19;;;;;;;0.30;0.30;;;;;;;;;;5039910;28;20033;-66
2021/07/13 12:42:47;;;;;;;0.77;0.30;;;;;;;;;;5043076;28;20060;-66
2021/07/13 12:45:15;;;;;;;0.77;0.20;;;;;;;;;;5031038;28;20108;-66
2021/07/13 12:47:43;;;;;;;0.32;0.25;;;;;;;;;;5047658;28;20021;-65
2021/07/13 12:50:08;;;;;;;1.20;0.17;;;;;;;;;;5034330;28;20017;-65
2021/07/13 12:52:36;;;;;;;0.38;0.20;;;;;;;;;;5036310;28;20025;-66
2021/07/13 12:55:06;;;;;;;1.77;0.40;;;;;;;;;;5031763;28;20087;-66
2021/07/13 12:57:36;;;;;;;0.52;0.20;;;;;;;;;;5040828;28;20023;-66
2021/07/13 13:00:08;;;;;;;1.70;0.20;;;;;;;;;;5042710;28;20025;-66
2021/07/13 13:02:34;;;;;;;0.47;0.40;;;;;;;;;;5035173;28;20998;-66
2021/07/13 13:04:59;;;;;;;0.20;0.20;;;;;;;;;;5044076;28;20120;-67
2021/07/13 13:07:24;;;;;;;1.52;0.30;;;;;;;;;;5043926;28;20040;-67
2021/07/13 13:09:49;;;;;;;0.47;0.35;;;;;;;;;;5033503;28;20044;-66
2021/07/13 13:12:16;;;;;;;0.63;0.30;;;;;;;;;;5034959;28;20028;-65
2021/07/13 13:14:41;;;;;;;0.50;0.20;;;;;;;;;;5040633;28;20029;-66
2021/07/13 13:17:07;;;;;;;0.30;0.30;;;;;;;;;;5030740;28;20062;-67
2021/07/13 13:19:33;;;;;;;0.60;0.30;;;;;;;;;;5035437;28;20026;-66
2021/07/13 13:21:58;;;;;;;2.72;0.40;;;;;;;;;;5034025;28;20111;-66
2021/07/13 13:24:24;;;;;;;0.65;0.40;;;;;;;;;;5031254;28;20421;-67
2021/07/13 13:26:49;;;;;;;1.07;0.40;;;;;;;;;;5036720;28;20113;-66
2021/07/13 13:29:14;;;;;;;1.60;0.35;;;;;;;;;;5037903;28;20300;-68
2021/07/13 13:31:39;;;;;;;1.05;0.50;;;;;;;;;;5031396;28;20027;-68
2021/07/13 13:34:04;;;;;;;1.27;0.35;;;;;;;;;;5036995;28;20621;-67
2021/07/13 13:36:30;;;;;;;2.22;0.50;;;;;;;;;;5028314;28;20026;-67
2021/07/13 13:39:14;;;;;;;1.02;0.55;;;;;;;;;;5025934;28;20127;-66
2021/07/13 13:41:40;;;;;;;2.03;0.85;;;;;;;;;;5022027;28;20030;-66
2021/07/13 13:44:05;;;;;;;7.78;1.88;;;;;;;;;;5034609;28;20059;-65
2021/07/13 13:46:30;;;;;;;0.80;0.60;;;;;;;;;;5025561;28;20103;-67
2021/07/13 13:48:55;;;;;;;1.08;0.70;;;;;;;;;;5036144;28;20029;-66
2021/07/13 13:51:20;;;;;;;2.10;0.73;;;;;;;;;;5033375;28;20064;-66
2021/07/13 13:53:46;;;;;;;2.58;0.90;;;;;;;;;;5030868;28;20268;-66
2021/07/13 13:56:12;;;;;;;2.10;1.00;;;;;;;;;;5023398;28;20380;-66
2021/07/13 13:58:38;;;;;;;1.15;0.70;;;;;;;;;;5021779;28;20018;-68
2021/07/13 14:01:04;;;;;;;1.58;0.85;;;;;;;;;;5028089;28;20039;-66
2021/07/13 14:03:29;;;;;;;2.55;0.77;;;;;;;;;;5028617;28;20025;-67
2021/07/13 14:05:54;;;;;;;3.97;0.80;;;;;;;;;;5025154;28;20035;-67
2021/07/13 14:08:20;;;;;;;2.35;0.80;;;;;;;;;;5023692;28;20030;-67
2021/07/13 14:10:45;;;;;;;1.75;0.85;;;;;;;;;;5036844;28;20021;-67
2021/07/13 14:13:10;;;;;;;0.85;0.60;;;;;;;;;;5032448;28;20495;-66
2021/07/13 14:15:35;;;;;;;1.52;0.70;;;;;;;;;;5021321;28;20032;-67
2021/07/13 14:18:01;;;;;;;1.45;0.82;;;;;;;;;;5026985;28;20076;-67
2021/07/13 14:20:26;;;;;;;1.67;0.80;;;;;;;;;;5029133;28;20030;-67
2021/07/13 14:22:51;;;;;;;1.85;0.82;;;;;;;;;;5017886;28;20017;-67
2021/07/13 14:25:17;;;;;;;2.35;0.90;;;;;;;;;;5032385;28;20388;-67
2021/07/13 14:27:42;;;;;;;3.10;1.00;;;;;;;;;;5037213;28;20021;-66
2021/07/13 14:30:08;;;;;;;2.03;0.90;;;;;;;;;;5043201;28;20451;-67
2021/07/13 14:32:34;;;;;;;1.60;0.90;;;;;;;;;;5034977;28;20047;-67
2021/07/13 14:34:59;;;;;;;1.98;0.70;;;;;;;;;;5025879;28;20021;-66
2021/07/13 14:37:25;;;;;;;3.78;1.00;;;;;;;;;;5029637;28;20022;-69
2021/07/13 14:39:50;;;;;;;4.03;0.88;;;;;;;;;;5038386;28;20120;-67
2021/07/13 14:42:15;;;;;;;2.53;1.17;;;;;;;;;;5041468;28;20073;-67